createdAt,value
2023-05-05T00:01:15.672Z,9.45
2023-05-05T00:03:42.685Z,9.45
2023-05-05T00:06:09.517Z,9.43
2023-05-05T00:08:36.234Z,9.47
2023-05-05T00:11:04.370Z,9.49
2023-05-05T00:13:31.447Z,9.46
2023-05-05T00:15:58.163Z,9.40
2023-05-05T00:18:24.852Z,9.38
2023-05-05T00:20:51.524Z,9.36
2023-05-05T00:23:19.632Z,9.33
2023-05-05T00:25:46.475Z,9.32
2023-05-05T00:28:14.251Z,9.43
2023-05-05T00:30:41.391Z,9.42
2023-05-05T00:33:08.451Z,9.38
2023-05-05T00:35:35.129Z,9.42
2023-05-05T00:38:02.865Z,9.36
2023-05-05T00:40:29.513Z,9.33
2023-05-05T00:42:56.297Z,9.35
2023-05-05T00:45:22.862Z,9.29
2023-05-05T00:47:54.658Z,9.25
2023-05-05T00:50:26.879Z,9.22
2023-05-05T00:53:05.774Z,9.18
2023-05-05T00:55:34.232Z,9.15
2023-05-05T00:58:02.667Z,9.15
2023-05-05T01:00:30.883Z,9.19
2023-05-05T01:02:57.663Z,9.15
2023-05-05T01:05:26.971Z,9.11
2023-05-05T01:08:05.872Z,9.08
2023-05-05T01:10:49.127Z,9.05
2023-05-05T01:13:47.191Z,9.04
2023-05-05T01:16:19.599Z,8.97
2023-05-05T01:19:04.356Z,8.94
2023-05-05T01:21:38.737Z,8.97
2023-05-05T01:24:35.526Z,8.95
2023-05-05T01:27:27.307Z,8.89
2023-05-05T01:30:35.097Z,8.78
2023-05-05T01:33:07.749Z,8.73
2023-05-05T01:35:55.936Z,8.73
2023-05-05T01:38:26.711Z,8.71
2023-05-05T01:41:21.623Z,8.71
2023-05-05T01:43:50.588Z,8.70
2023-05-05T01:46:19.126Z,8.65
2023-05-05T01:48:48.236Z,8.64
2023-05-05T01:51:17.758Z,8.65
2023-05-05T01:53:47.049Z,8.61
2023-05-05T01:56:15.442Z,8.52
2023-05-05T01:58:44.991Z,8.52
2023-05-05T02:01:13.355Z,8.44
2023-05-05T02:03:41.607Z,8.33
2023-05-05T02:06:10.225Z,8.25
2023-05-05T02:08:39.218Z,8.22
2023-05-05T02:11:08.542Z,8.19
2023-05-05T02:13:36.579Z,8.13
2023-05-05T02:16:05.778Z,8.12
2023-05-05T02:18:35.762Z,8.09
2023-05-05T02:21:03.556Z,8.07
2023-05-05T02:23:30.660Z,8.03
2023-05-05T02:26:09.198Z,7.99
2023-05-05T02:28:42.698Z,7.88
2023-05-05T02:31:12.298Z,7.82
2023-05-05T02:33:41.634Z,7.78
2023-05-05T02:36:30.029Z,7.79
2023-05-05T02:39:02.007Z,7.81
2023-05-05T02:41:30.147Z,7.77
2023-05-05T02:43:58.281Z,7.77
2023-05-05T02:46:25.300Z,7.68
2023-05-05T02:48:51.928Z,7.63
2023-05-05T02:51:18.543Z,7.57
2023-05-05T02:53:45.147Z,7.51
2023-05-05T02:56:33.009Z,7.48
2023-05-05T02:59:27.460Z,7.47
2023-05-05T03:02:21.812Z,7.46
2023-05-05T03:05:10.987Z,7.43
2023-05-05T03:08:00.316Z,7.43
2023-05-05T03:10:30.438Z,7.43
2023-05-05T03:13:02.122Z,7.38
2023-05-05T03:15:32.295Z,7.40
2023-05-05T03:18:00.334Z,7.37
2023-05-05T03:20:27.564Z,7.37
2023-05-05T03:22:54.831Z,7.34
2023-05-05T03:25:21.487Z,7.33
2023-05-05T03:27:48.123Z,7.28
2023-05-05T03:30:15.162Z,7.22
2023-05-05T03:32:41.873Z,7.20
2023-05-05T03:35:08.855Z,7.22
2023-05-05T03:37:35.508Z,7.19
2023-05-05T03:40:02.083Z,7.16
2023-05-05T03:42:28.652Z,7.13
2023-05-05T03:44:57.082Z,7.22
2023-05-05T03:47:24.625Z,7.24
2023-05-05T03:49:51.157Z,7.38
2023-05-05T03:52:18.047Z,7.35
2023-05-05T03:54:46.046Z,7.43
2023-05-05T03:57:12.627Z,7.43
2023-05-05T03:59:39.228Z,7.47
2023-05-05T04:02:06.015Z,7.48
2023-05-05T04:04:32.870Z,7.51
2023-05-05T04:06:59.476Z,7.64
2023-05-05T04:09:26.156Z,7.60
2023-05-05T04:11:52.952Z,7.61
2023-05-05T04:14:19.583Z,7.64
2023-05-05T04:16:46.168Z,7.71
2023-05-05T04:19:13.110Z,7.72
2023-05-05T04:21:39.685Z,7.77
2023-05-05T04:24:06.738Z,7.79
2023-05-05T04:26:33.384Z,7.81
2023-05-05T04:29:00.200Z,7.82
2023-05-05T04:31:27.436Z,7.81
2023-05-05T04:33:54.100Z,7.88
2023-05-05T04:36:20.689Z,7.94
2023-05-05T04:38:47.285Z,8.07
2023-05-05T04:41:14.013Z,8.22
2023-05-05T04:43:41.251Z,8.26
2023-05-05T04:46:07.879Z,8.37
2023-05-05T04:48:34.518Z,8.50
2023-05-05T04:51:05.075Z,8.61
2023-05-05T04:53:32.020Z,8.85
2023-05-05T04:56:00.844Z,8.89
2023-05-05T04:58:28.321Z,9.04
2023-05-05T05:00:54.877Z,9.10
2023-05-05T05:03:21.636Z,9.21
2023-05-05T05:05:48.320Z,9.31
2023-05-05T05:08:17.994Z,9.39
2023-05-05T05:10:45.028Z,9.50
2023-05-05T05:13:12.874Z,9.64
2023-05-05T05:15:39.773Z,9.76
2023-05-05T05:18:06.664Z,9.86
2023-05-05T05:20:33.599Z,9.97
2023-05-05T05:23:04.268Z,10.17
2023-05-05T05:25:30.963Z,10.27
2023-05-05T05:28:08.884Z,10.40
2023-05-05T05:30:37.138Z,10.49
2023-05-05T05:33:03.937Z,10.58
2023-05-05T05:35:31.491Z,10.61
2023-05-05T05:37:58.155Z,10.66
2023-05-05T05:40:24.741Z,10.93
2023-05-05T05:42:51.259Z,11.40
2023-05-05T05:45:18.006Z,11.89
2023-05-05T05:47:44.626Z,13.53
2023-05-05T05:50:11.497Z,15.27
2023-05-05T05:52:38.055Z,15.27
2023-05-05T05:55:05.259Z,14.86
2023-05-05T05:57:31.924Z,15.41
2023-05-05T06:00:00.502Z,16.52
2023-05-05T06:02:28.614Z,16.13
2023-05-05T06:04:55.207Z,15.75
2023-05-05T06:07:21.949Z,16.66
2023-05-05T06:09:48.554Z,17.14
2023-05-05T06:12:15.236Z,17.94
2023-05-05T06:14:41.809Z,18.01
2023-05-05T06:17:08.514Z,18.73
2023-05-05T06:19:36.884Z,19.36
2023-05-05T06:22:03.437Z,19.85
2023-05-05T06:24:31.971Z,19.57
2023-05-05T06:27:00.168Z,18.30
2023-05-05T06:29:26.846Z,17.12
2023-05-05T06:31:53.447Z,16.30
2023-05-05T06:34:20.062Z,15.95
2023-05-05T06:36:46.766Z,17.06
2023-05-05T06:39:15.846Z,18.82
2023-05-05T06:41:42.676Z,19.57
2023-05-05T06:44:10.569Z,19.95
2023-05-05T06:46:37.393Z,18.91
2023-05-05T06:49:04.052Z,18.98
2023-05-05T06:51:31.961Z,19.26
2023-05-05T06:53:58.523Z,19.94
2023-05-05T06:56:25.123Z,19.74
2023-05-05T06:58:51.677Z,19.57
2023-05-05T07:01:19.463Z,20.40
2023-05-05T07:03:46.249Z,20.55
2023-05-05T07:06:13.095Z,20.68
2023-05-05T07:08:39.724Z,21.28
2023-05-05T07:11:07.025Z,22.17
2023-05-05T07:13:33.582Z,23.23
2023-05-05T07:16:00.326Z,23.60
2023-05-05T07:18:26.952Z,22.72
2023-05-05T07:20:53.518Z,23.11
2023-05-05T07:23:20.117Z,22.91
2023-05-05T07:25:46.715Z,22.83
2023-05-05T07:28:13.364Z,23.42
2023-05-05T07:30:39.958Z,23.98
2023-05-05T07:33:06.729Z,24.17
2023-05-05T07:35:33.397Z,23.93
2023-05-05T07:38:00.059Z,24.64
2023-05-05T07:40:26.861Z,24.21
2023-05-05T07:42:53.361Z,23.29
2023-05-05T07:45:19.929Z,23.14
2023-05-05T07:47:46.511Z,23.02
2023-05-05T07:50:13.181Z,23.07
2023-05-05T07:55:09.326Z,23.88
2023-05-05T07:57:35.920Z,24.29
2023-05-05T08:00:02.792Z,24.52
2023-05-05T08:02:29.431Z,24.90
2023-05-05T08:04:56.051Z,25.15
2023-05-05T08:07:22.760Z,24.03
2023-05-05T08:09:49.467Z,25.00
2023-05-05T08:12:18.996Z,24.95
2023-05-05T08:14:45.745Z,25.54
2023-05-05T08:17:12.303Z,24.76
2023-05-05T08:19:38.902Z,25.36
2023-05-05T08:22:05.615Z,24.78
2023-05-05T08:24:32.798Z,24.58
2023-05-05T08:26:59.353Z,24.85
2023-05-05T08:29:26.038Z,25.00
2023-05-05T08:31:52.937Z,24.73
2023-05-05T08:34:19.967Z,24.07
2023-05-05T08:36:48.984Z,23.56
2023-05-05T08:39:15.726Z,23.96
2023-05-05T08:41:42.354Z,25.33
2023-05-05T08:44:09.414Z,26.56
2023-05-05T08:46:36.719Z,26.87
2023-05-05T08:49:05.409Z,25.98
2023-05-05T08:51:41.094Z,26.09
2023-05-05T08:54:14.544Z,25.94
2023-05-05T08:56:44.894Z,25.77
2023-05-05T08:59:13.113Z,23.80
2023-05-05T09:01:41.818Z,22.54
2023-05-05T09:04:09.364Z,23.20
2023-05-05T09:06:37.067Z,23.30
2023-05-05T09:09:03.872Z,23.87
2023-05-05T09:11:32.058Z,24.57
2023-05-05T09:13:58.649Z,24.58
2023-05-05T09:16:25.364Z,24.31
2023-05-05T09:19:01.173Z,24.45
2023-05-05T09:21:28.080Z,25.03
2023-05-05T09:24:08.865Z,25.31
2023-05-05T09:26:38.600Z,26.57
2023-05-05T09:29:05.988Z,27.49
2023-05-05T09:31:34.928Z,27.18
2023-05-05T09:34:03.565Z,27.56
2023-05-05T09:36:47.976Z,27.37
2023-05-05T09:39:19.525Z,27.21
2023-05-05T09:41:46.962Z,27.37
2023-05-05T09:44:17.183Z,27.00
2023-05-05T09:46:51.517Z,28.04
2023-05-05T09:49:23.017Z,28.48
2023-05-05T09:51:49.652Z,28.82
2023-05-05T09:54:27.586Z,28.37
2023-05-05T09:56:56.459Z,28.17
2023-05-05T09:59:23.940Z,27.99
2023-05-05T10:01:51.695Z,27.31
2023-05-05T10:04:29.302Z,26.42
2023-05-05T10:06:57.784Z,25.05
2023-05-05T10:09:25.798Z,24.68
2023-05-05T10:11:53.393Z,24.93
2023-05-05T10:14:20.414Z,25.17
2023-05-05T10:16:49.514Z,25.38
2023-05-05T10:19:18.474Z,25.47
2023-05-05T10:21:53.171Z,26.02
2023-05-05T10:24:39.137Z,27.14
2023-05-05T10:27:34.714Z,26.84
2023-05-05T10:30:05.441Z,25.64
2023-05-05T10:32:59.904Z,24.55
2023-05-05T10:35:37.502Z,24.17
2023-05-05T10:38:08.229Z,24.35
2023-05-05T10:40:35.131Z,24.89
2023-05-05T10:43:02.253Z,26.09
2023-05-05T10:45:29.119Z,27.01
2023-05-05T10:47:59.647Z,26.87
2023-05-05T10:50:28.945Z,26.47
2023-05-05T10:53:10.369Z,25.61
2023-05-05T10:55:57.105Z,26.24
2023-05-05T10:58:55.370Z,26.06
2023-05-05T11:01:33.711Z,26.06
2023-05-05T11:04:35.852Z,27.49
2023-05-05T11:07:09.766Z,27.42
2023-05-05T11:09:55.172Z,28.07
2023-05-05T11:12:21.960Z,28.41
2023-05-05T11:15:23.735Z,27.25
2023-05-05T11:17:50.748Z,27.61
2023-05-05T11:20:17.543Z,27.89
2023-05-05T11:23:02.316Z,28.40
2023-05-05T11:25:39.021Z,27.93
2023-05-05T11:28:12.901Z,27.20
2023-05-05T11:30:54.792Z,25.56
2023-05-05T11:33:30.517Z,26.05
2023-05-05T11:36:06.752Z,26.90
2023-05-05T11:38:36.472Z,26.95
2023-05-05T11:41:12.931Z,27.23
2023-05-05T11:43:41.751Z,27.67
2023-05-05T11:46:15.146Z,27.30
2023-05-05T11:48:49.165Z,26.95
2023-05-05T11:51:16.974Z,26.70
2023-05-05T11:53:48.301Z,26.24
2023-05-05T11:56:19.026Z,26.33
2023-05-05T11:58:47.114Z,26.79
2023-05-05T12:01:14.591Z,25.91
2023-05-05T12:03:41.757Z,26.37
2023-05-05T12:06:08.639Z,26.93
2023-05-05T12:08:39.754Z,27.18
2023-05-05T12:11:11.034Z,27.49
2023-05-05T12:13:37.568Z,28.17
2023-05-05T12:16:11.838Z,28.17
2023-05-05T12:18:39.437Z,27.45
2023-05-05T12:21:19.560Z,27.37
2023-05-05T12:23:46.644Z,26.19
2023-05-05T12:26:32.053Z,27.03
2023-05-05T12:29:00.395Z,27.48
2023-05-05T12:31:41.121Z,27.75
2023-05-05T12:34:11.519Z,27.69
2023-05-05T12:36:38.822Z,27.01
2023-05-05T12:39:05.641Z,26.28
2023-05-05T12:41:33.097Z,27.01
2023-05-05T12:44:01.476Z,27.44
2023-05-05T12:46:31.977Z,27.52
2023-05-05T12:49:05.105Z,26.80
2023-05-05T12:51:33.565Z,27.04
2023-05-05T12:54:11.238Z,26.91
2023-05-05T12:56:42.948Z,27.59
2023-05-05T12:59:10.865Z,27.37
2023-05-05T13:02:02.563Z,27.49
2023-05-05T13:04:29.266Z,27.34
2023-05-05T13:07:13.462Z,26.56
2023-05-05T13:09:40.625Z,27.00
2023-05-05T13:12:08.545Z,26.70
2023-05-05T13:14:36.261Z,26.82
2023-05-05T13:17:02.877Z,26.56
2023-05-05T13:19:29.613Z,25.80
2023-05-05T13:21:57.446Z,25.41
2023-05-05T13:24:38.171Z,25.09
2023-05-05T13:27:09.372Z,24.44
2023-05-05T13:29:36.771Z,24.10
2023-05-05T13:32:03.784Z,24.34
2023-05-05T13:34:30.537Z,23.98
2023-05-05T13:36:57.108Z,23.94
2023-05-05T13:39:23.691Z,23.67
2023-05-05T13:41:50.389Z,23.60
2023-05-05T13:44:17.021Z,23.81
2023-05-05T13:46:43.677Z,24.03
2023-05-05T13:49:10.531Z,23.88
2023-05-05T13:51:38.354Z,23.81
2023-05-05T13:54:05.896Z,23.97
2023-05-05T13:56:33.337Z,23.88
2023-05-05T13:59:00.063Z,23.30
2023-05-05T14:01:26.972Z,23.09
2023-05-05T14:03:54.983Z,22.92
2023-05-05T14:06:23.585Z,22.79
2023-05-05T14:08:50.170Z,23.02
2023-05-05T14:11:18.086Z,23.36
2023-05-05T14:13:46.453Z,23.23
2023-05-05T14:16:13.318Z,22.77
2023-05-05T14:18:40.028Z,22.95
2023-05-05T14:21:06.710Z,22.97
2023-05-05T14:23:33.325Z,22.92
2023-05-05T14:26:00.124Z,22.44
2023-05-05T14:28:26.748Z,22.60
2023-05-05T14:30:53.477Z,22.83
2023-05-05T14:33:20.200Z,22.98
2023-05-05T14:35:46.859Z,22.46
2023-05-05T14:38:13.443Z,22.13
2023-05-05T14:40:40.900Z,22.24
2023-05-05T14:43:07.479Z,22.17
2023-05-05T14:45:34.113Z,22.26
2023-05-05T14:48:00.712Z,22.03
2023-05-05T14:50:27.379Z,22.12
2023-05-05T14:52:53.967Z,22.30
2023-05-05T14:55:21.249Z,21.99
2023-05-05T14:57:47.821Z,21.85
2023-05-05T15:00:14.878Z,21.57
2023-05-05T15:02:41.547Z,21.34
2023-05-05T15:05:08.773Z,21.14
2023-05-05T15:07:35.689Z,21.14
2023-05-05T15:10:02.265Z,21.21
2023-05-05T15:12:28.815Z,21.26
2023-05-05T15:14:55.484Z,21.54
2023-05-05T15:17:22.209Z,21.42
2023-05-05T15:19:49.042Z,21.37
2023-05-05T15:22:15.799Z,21.58
2023-05-05T15:24:42.398Z,21.49
2023-05-05T15:27:09.074Z,21.54
2023-05-05T15:29:35.635Z,21.34
2023-05-05T15:32:02.305Z,21.07
2023-05-05T15:34:28.967Z,21.08
2023-05-05T15:36:56.058Z,21.00
2023-05-05T15:39:22.725Z,20.66
2023-05-05T15:41:49.261Z,20.32
2023-05-05T15:44:15.932Z,20.29
2023-05-05T15:46:42.607Z,20.36
2023-05-05T15:49:09.307Z,20.26
2023-05-05T15:51:36.175Z,20.29
2023-05-05T15:54:02.767Z,20.18
2023-05-05T15:56:29.621Z,20.17
2023-05-05T15:58:56.844Z,20.19
2023-05-05T16:01:23.445Z,20.32
2023-05-05T16:03:50.298Z,20.35
2023-05-05T16:06:16.928Z,20.19
2023-05-05T16:08:43.591Z,19.92
2023-05-05T16:11:10.352Z,19.70
2023-05-05T16:13:38.873Z,19.70
2023-05-05T16:16:06.766Z,19.57
2023-05-05T16:18:33.506Z,19.47
2023-05-05T16:21:00.139Z,19.36
2023-05-05T16:23:26.681Z,19.32
2023-05-05T16:25:53.338Z,19.27
2023-05-05T16:28:20.140Z,19.10
2023-05-05T16:30:47.328Z,19.05
2023-05-05T16:33:14.140Z,19.02
2023-05-05T16:35:43.849Z,19.05
2023-05-05T16:38:10.456Z,18.92
2023-05-05T16:40:37.756Z,18.87
2023-05-05T16:43:04.580Z,18.88
2023-05-05T16:45:31.403Z,18.81
2023-05-05T16:47:57.997Z,18.57
2023-05-05T16:50:24.657Z,18.54
2023-05-05T16:52:51.328Z,18.52
2023-05-05T16:55:17.923Z,18.52
2023-05-05T16:57:44.608Z,18.48
2023-05-05T17:00:12.289Z,18.44
2023-05-05T17:02:38.930Z,18.33
2023-05-05T17:05:06.048Z,18.24
2023-05-05T17:07:34.149Z,18.17
2023-05-05T17:10:00.801Z,18.13
2023-05-05T17:12:27.467Z,18.10
2023-05-05T17:14:54.133Z,18.00
2023-05-05T17:17:20.923Z,17.97
2023-05-05T17:19:47.574Z,17.85
2023-05-05T17:22:14.195Z,17.85
2023-05-05T17:24:40.967Z,17.78
2023-05-05T17:27:07.643Z,17.68
2023-05-05T17:29:39.460Z,17.59
2023-05-05T17:32:06.805Z,17.52
2023-05-05T17:34:33.601Z,17.51
2023-05-05T17:37:00.772Z,17.43
2023-05-05T17:39:27.354Z,17.34
2023-05-05T17:41:53.902Z,17.32
2023-05-05T17:44:20.687Z,17.20
2023-05-05T17:46:47.435Z,17.20
2023-05-05T17:49:14.059Z,17.17
2023-05-05T17:51:40.733Z,17.12
2023-05-05T17:54:07.314Z,17.12
2023-05-05T17:56:34.771Z,17.04
2023-05-05T17:59:01.363Z,16.99
2023-05-05T18:01:28.020Z,16.90
2023-05-05T18:03:54.937Z,16.84
2023-05-05T18:06:21.772Z,16.91
2023-05-05T18:08:48.417Z,16.84
2023-05-05T18:11:15.320Z,16.79
2023-05-05T18:13:42.837Z,16.73
2023-05-05T18:16:09.746Z,16.71
2023-05-05T18:18:36.534Z,16.66
2023-05-05T18:21:03.221Z,16.55
2023-05-05T18:23:29.819Z,16.55
2023-05-05T18:25:56.380Z,16.56
2023-05-05T18:28:23.161Z,16.45
2023-05-05T18:30:49.787Z,16.39
2023-05-05T18:33:16.517Z,16.38
2023-05-05T18:35:43.156Z,16.36
2023-05-05T18:38:09.715Z,16.19
2023-05-05T18:40:36.377Z,16.13
2023-05-05T18:43:03.024Z,16.18
2023-05-05T18:45:29.902Z,16.09
2023-05-05T18:47:56.560Z,16.15
2023-05-05T18:50:23.205Z,16.01
2023-05-05T18:52:49.927Z,16.06
2023-05-05T18:55:16.723Z,16.01
2023-05-05T18:57:43.367Z,16.01
2023-05-05T19:00:10.640Z,15.90
2023-05-05T19:02:37.338Z,15.81
2023-05-05T19:05:04.277Z,15.85
2023-05-05T19:07:35.625Z,15.75
2023-05-05T19:10:04.525Z,15.72
2023-05-05T19:12:31.211Z,15.65
2023-05-05T19:14:57.830Z,15.58
2023-05-05T19:17:24.626Z,15.68
2023-05-05T19:19:51.552Z,15.60
2023-05-05T19:22:18.357Z,15.58
2023-05-05T19:24:44.955Z,15.50
2023-05-05T19:27:15.508Z,15.44
2023-05-05T19:29:42.969Z,15.41
2023-05-05T19:32:10.407Z,15.37
2023-05-05T19:34:37.221Z,15.37
2023-05-05T19:37:03.780Z,15.26
2023-05-05T19:39:30.360Z,15.16
2023-05-05T19:41:56.959Z,15.19
2023-05-05T19:44:23.807Z,15.10
2023-05-05T19:46:50.483Z,15.02
2023-05-05T19:49:16.989Z,15.00
2023-05-05T19:51:46.190Z,14.92
2023-05-05T19:54:13.208Z,14.89
2023-05-05T19:56:40.392Z,14.81
2023-05-05T19:59:06.928Z,14.78
2023-05-05T20:01:34.013Z,14.75
2023-05-05T20:04:01.108Z,14.76
2023-05-05T20:06:27.800Z,14.72
2023-05-05T20:08:55.407Z,14.67
2023-05-05T20:11:22.278Z,14.61
2023-05-05T20:13:50.012Z,14.57
2023-05-05T20:16:16.846Z,14.46
2023-05-05T20:18:43.793Z,14.44
2023-05-05T20:21:10.327Z,14.44
2023-05-05T20:23:37.087Z,14.42
2023-05-05T20:26:04.524Z,14.38
2023-05-05T20:28:31.675Z,14.38
2023-05-05T20:31:00.572Z,14.31
2023-05-05T20:33:28.368Z,14.28
2023-05-05T20:35:55.071Z,14.24
2023-05-05T20:38:21.628Z,14.21
2023-05-05T20:40:48.328Z,14.18
2023-05-05T20:43:14.971Z,14.10
2023-05-05T20:45:42.080Z,14.04
2023-05-05T20:48:11.142Z,14.10
2023-05-05T20:50:38.876Z,14.02
2023-05-05T20:53:07.870Z,14.00
2023-05-05T20:55:34.475Z,13.93
2023-05-05T20:58:01.282Z,13.93
2023-05-05T21:00:27.897Z,13.93
2023-05-05T21:02:55.038Z,13.84
2023-05-05T21:05:22.545Z,13.76
2023-05-05T21:07:49.229Z,13.69
2023-05-05T21:10:15.875Z,13.65
2023-05-05T21:12:42.597Z,13.65
2023-05-05T21:15:10.021Z,13.62
2023-05-05T21:17:36.953Z,13.61
2023-05-05T21:20:03.831Z,13.56
2023-05-05T21:22:30.641Z,13.62
2023-05-05T21:25:15.304Z,13.52
2023-05-05T21:27:41.997Z,13.48
2023-05-05T21:30:10.965Z,13.53
2023-05-05T21:32:38.856Z,13.51
2023-05-05T21:35:07.317Z,13.51
2023-05-05T21:37:34.313Z,13.51
2023-05-05T21:40:01.093Z,13.48
2023-05-05T21:42:30.419Z,13.42
2023-05-05T21:44:57.001Z,13.42
2023-05-05T21:47:23.720Z,13.38
2023-05-05T21:49:50.501Z,13.31
2023-05-05T21:52:17.217Z,13.22
2023-05-05T21:54:44.011Z,13.24
2023-05-05T21:57:10.742Z,13.28
2023-05-05T21:59:37.581Z,13.25
2023-05-05T22:02:04.255Z,13.24
2023-05-05T22:04:30.948Z,13.21
2023-05-05T22:06:57.845Z,13.18
2023-05-05T22:09:24.388Z,13.16
2023-05-05T22:11:51.677Z,13.16
2023-05-05T22:14:18.329Z,13.15
2023-05-05T22:16:45.288Z,12.98
2023-05-05T22:19:12.065Z,12.94
2023-05-05T22:21:38.758Z,12.90
2023-05-05T22:24:07.049Z,12.83
2023-05-05T22:26:33.720Z,12.80
2023-05-05T22:29:00.740Z,12.67
2023-05-05T22:31:27.430Z,12.61
2023-05-05T22:33:53.987Z,12.53
2023-05-05T22:36:20.563Z,12.44
2023-05-05T22:38:47.171Z,12.29
2023-05-05T22:41:13.786Z,12.18
2023-05-05T22:43:40.430Z,12.02
2023-05-05T22:46:07.200Z,11.81
2023-05-05T22:48:33.780Z,11.74
2023-05-05T22:51:00.322Z,11.62
2023-05-05T22:53:26.959Z,11.51
2023-05-05T22:55:53.740Z,11.48
2023-05-05T22:58:20.966Z,11.38
2023-05-05T23:00:47.569Z,11.28
2023-05-05T23:03:14.413Z,11.20
2023-05-05T23:05:41.144Z,11.13
2023-05-05T23:08:07.808Z,11.13
2023-05-05T23:10:34.436Z,11.16
2023-05-05T23:13:01.089Z,11.07
2023-05-05T23:15:28.588Z,11.07
2023-05-05T23:17:55.586Z,11.02
2023-05-05T23:20:22.300Z,10.93
2023-05-05T23:22:48.885Z,10.93
2023-05-05T23:25:15.563Z,10.85
2023-05-05T23:27:42.212Z,10.80
2023-05-05T23:30:09.381Z,10.65
2023-05-05T23:32:36.110Z,10.62
2023-05-05T23:35:02.937Z,10.62
2023-05-05T23:37:29.531Z,10.56
2023-05-05T23:39:56.732Z,10.54
2023-05-05T23:42:24.128Z,10.45
2023-05-05T23:44:50.830Z,10.42
2023-05-05T23:47:17.424Z,10.38
2023-05-05T23:49:44.100Z,10.34
2023-05-05T23:52:11.351Z,10.31
2023-05-05T23:54:37.932Z,10.30
2023-05-05T23:57:04.631Z,10.28
2023-05-05T23:59:31.190Z,10.30
